createdAt,value
2018-12-07T00:01:32.910Z,12.50
2018-12-07T00:04:01.122Z,12.50
2018-12-07T00:06:29.081Z,12.50
2018-12-07T00:08:57.003Z,12.50
2018-12-07T00:11:25.004Z,12.50
2018-12-07T00:13:53.030Z,12.60
2018-12-07T00:16:21.012Z,12.50
2018-12-07T00:18:48.923Z,12.60
2018-12-07T00:21:18.582Z,12.60
2018-12-07T00:23:46.653Z,12.60
2018-12-07T00:26:14.835Z,12.60
2018-12-07T00:28:42.766Z,12.60
2018-12-07T00:31:10.750Z,12.60
2018-12-07T00:33:39.462Z,12.60
2018-12-07T00:36:07.870Z,12.60
2018-12-07T00:38:36.287Z,12.70
2018-12-07T00:41:04.462Z,12.60
2018-12-07T00:43:32.621Z,12.60
2018-12-07T00:46:00.749Z,12.60
2018-12-07T00:48:28.781Z,12.60
2018-12-07T00:50:56.746Z,12.60
2018-12-07T00:53:24.850Z,12.60
2018-12-07T00:55:53.633Z,12.60
2018-12-07T00:58:21.702Z,12.70
2018-12-07T01:00:50.181Z,12.70
2018-12-07T01:03:18.346Z,12.70
2018-12-07T01:05:47.465Z,12.70
2018-12-07T01:08:15.847Z,12.70
2018-12-07T01:10:45.099Z,12.80
2018-12-07T01:13:13.383Z,12.80
2018-12-07T01:15:41.774Z,12.80
2018-12-07T01:18:10.353Z,12.80
2018-12-07T01:20:38.719Z,12.80
2018-12-07T01:23:07.651Z,12.70
2018-12-07T01:25:35.899Z,12.80
2018-12-07T01:28:04.080Z,12.80
2018-12-07T01:30:33.228Z,12.70
2018-12-07T01:33:03.204Z,12.80
2018-12-07T01:35:33.926Z,12.80
2018-12-07T01:40:40.787Z,12.80
2018-12-07T01:43:11.262Z,12.90
2018-12-07T01:45:41.252Z,12.90
2018-12-07T01:48:11.629Z,12.90
2018-12-07T01:50:42.087Z,12.90
2018-12-07T01:53:13.579Z,12.90
2018-12-07T01:55:42.010Z,12.90
2018-12-07T01:58:14.011Z,12.90
2018-12-07T02:00:42.286Z,12.90
2018-12-07T02:03:10.822Z,12.90
2018-12-07T02:05:39.243Z,12.90
2018-12-07T02:08:07.520Z,12.90
2018-12-07T02:10:36.106Z,12.90
2018-12-07T02:13:04.511Z,12.90
2018-12-07T02:15:34.324Z,12.90
2018-12-07T02:18:02.580Z,12.90
2018-12-07T02:20:30.510Z,12.90
2018-12-07T02:22:58.412Z,12.90
2018-12-07T02:25:26.416Z,12.90
2018-12-07T02:27:58.816Z,12.90
2018-12-07T02:30:27.164Z,12.90
2018-12-07T02:32:55.263Z,12.90
2018-12-07T02:35:23.273Z,12.90
2018-12-07T02:37:51.244Z,12.90
2018-12-07T02:40:19.191Z,12.90
2018-12-07T02:42:47.111Z,12.90
2018-12-07T02:45:15.171Z,12.90
2018-12-07T02:47:43.310Z,12.90
2018-12-07T02:50:11.313Z,12.90
2018-12-07T02:52:41.613Z,12.90
2018-12-07T02:55:09.695Z,12.90
2018-12-07T02:57:37.611Z,12.80
2018-12-07T03:00:07.007Z,12.90
2018-12-07T03:02:37.094Z,12.90
2018-12-07T03:05:05.323Z,12.90
2018-12-07T03:07:33.344Z,12.90
2018-12-07T03:10:01.348Z,12.90
2018-12-07T03:12:29.479Z,12.90
2018-12-07T03:15:10.373Z,12.90
2018-12-07T03:17:38.410Z,12.90
2018-12-07T03:20:06.590Z,12.90
2018-12-07T03:22:35.030Z,13.00
2018-12-07T03:25:04.432Z,13.00
2018-12-07T03:27:32.534Z,13.00
2018-12-07T03:30:00.550Z,13.00
2018-12-07T03:32:28.594Z,13.00
2018-12-07T03:34:56.652Z,13.00
2018-12-07T03:37:24.803Z,13.00
2018-12-07T03:39:52.844Z,13.00
2018-12-07T03:42:20.870Z,13.00
2018-12-07T03:44:48.984Z,13.00
2018-12-07T03:47:16.997Z,13.00
2018-12-07T03:49:47.334Z,12.90
2018-12-07T03:52:15.378Z,12.90
2018-12-07T03:54:43.311Z,12.90
2018-12-07T03:57:11.326Z,12.90
2018-12-07T03:59:39.339Z,12.90
2018-12-07T04:02:07.251Z,12.90
2018-12-07T04:04:35.370Z,12.90
2018-12-07T04:07:03.342Z,12.90
2018-12-07T04:09:31.307Z,12.90
2018-12-07T04:11:59.282Z,12.90
2018-12-07T04:14:27.275Z,12.90
2018-12-07T04:16:55.259Z,12.90
2018-12-07T04:19:24.753Z,12.90
2018-12-07T04:21:52.925Z,12.90
2018-12-07T04:24:20.882Z,12.90
2018-12-07T04:26:49.107Z,13.00
2018-12-07T04:29:17.224Z,12.90
2018-12-07T04:31:45.228Z,13.00
2018-12-07T04:34:15.525Z,12.90
2018-12-07T04:36:43.952Z,12.90
2018-12-07T04:39:13.424Z,13.00
2018-12-07T04:41:41.786Z,12.90
2018-12-07T04:44:09.928Z,12.90
2018-12-07T04:46:37.894Z,12.90
2018-12-07T04:49:05.942Z,12.90
2018-12-07T04:51:35.840Z,12.90
2018-12-07T04:54:05.795Z,12.90
2018-12-07T04:56:35.520Z,12.90
2018-12-07T04:59:04.984Z,12.90
2018-12-07T05:01:37.954Z,12.90
2018-12-07T05:04:07.014Z,12.90
2018-12-07T05:06:35.299Z,12.90
2018-12-07T05:09:05.702Z,12.90
2018-12-07T05:11:34.676Z,12.90
2018-12-07T05:14:02.980Z,12.90
2018-12-07T05:16:32.072Z,12.90
2018-12-07T05:19:00.643Z,12.80
2018-12-07T05:21:28.956Z,12.80
2018-12-07T05:23:57.120Z,12.80
2018-12-07T05:26:26.165Z,12.80
2018-12-07T05:28:54.491Z,12.80
2018-12-07T05:31:22.522Z,12.90
2018-12-07T05:33:50.564Z,12.90
2018-12-07T05:36:18.541Z,12.90
2018-12-07T05:38:46.640Z,12.90
2018-12-07T05:41:14.616Z,12.90
2018-12-07T05:43:53.877Z,12.90
2018-12-07T05:46:23.957Z,12.90
2018-12-07T05:48:52.061Z,12.90
2018-12-07T05:51:20.007Z,12.90
2018-12-07T05:53:48.301Z,12.90
2018-12-07T05:56:16.461Z,12.90
2018-12-07T05:58:44.408Z,12.90
2018-12-07T06:01:12.417Z,12.90
2018-12-07T06:03:40.465Z,12.90
2018-12-07T06:06:08.510Z,13.00
2018-12-07T06:08:36.436Z,13.00
2018-12-07T06:11:04.502Z,13.00
2018-12-07T06:13:32.483Z,13.00
2018-12-07T06:16:00.560Z,13.10
2018-12-07T06:18:29.501Z,13.10
2018-12-07T06:20:57.581Z,13.10
2018-12-07T06:23:25.531Z,13.10
2018-12-07T06:25:53.658Z,13.10
2018-12-07T06:28:21.723Z,13.10
2018-12-07T06:30:49.996Z,13.10
2018-12-07T06:33:18.263Z,13.10
2018-12-07T06:35:46.330Z,13.10
2018-12-07T06:38:14.291Z,13.10
2018-12-07T06:40:42.443Z,13.10
2018-12-07T06:43:10.499Z,13.10
2018-12-07T06:45:38.463Z,13.10
2018-12-07T06:48:06.436Z,13.10
2018-12-07T06:50:34.380Z,13.20
2018-12-07T06:53:02.452Z,13.20
2018-12-07T06:55:30.513Z,13.20
2018-12-07T06:57:58.483Z,13.10
2018-12-07T07:00:26.551Z,13.10
2018-12-07T07:02:54.645Z,13.20
2018-12-07T07:05:22.703Z,13.20
2018-12-07T07:07:50.779Z,13.20
2018-12-07T07:10:18.798Z,13.20
2018-12-07T07:12:46.864Z,13.20
2018-12-07T07:15:14.960Z,13.20
2018-12-07T07:17:43.082Z,13.20
2018-12-07T07:20:11.271Z,13.20
2018-12-07T07:22:39.977Z,13.20
2018-12-07T07:25:08.075Z,13.20
2018-12-07T07:27:36.091Z,13.10
2018-12-07T07:30:07.473Z,13.10
2018-12-07T07:32:39.032Z,13.10
2018-12-07T07:35:07.270Z,13.10
2018-12-07T07:37:35.629Z,13.10
2018-12-07T07:40:05.179Z,13.00
2018-12-07T07:42:33.377Z,13.00
2018-12-07T07:45:02.241Z,13.00
2018-12-07T07:47:30.271Z,13.10
2018-12-07T07:49:58.792Z,13.10
2018-12-07T07:52:28.225Z,13.10
2018-12-07T07:54:57.728Z,13.00
2018-12-07T07:57:25.957Z,13.00
2018-12-07T07:59:53.907Z,13.00
2018-12-07T08:02:21.957Z,13.00
2018-12-07T08:04:49.975Z,13.00
2018-12-07T08:07:17.944Z,13.00
2018-12-07T08:09:46.127Z,13.00
2018-12-07T08:12:15.090Z,13.00
2018-12-07T08:14:45.014Z,13.00
2018-12-07T08:17:13.962Z,13.10
2018-12-07T08:19:42.174Z,13.10
2018-12-07T08:22:10.501Z,13.10
2018-12-07T08:24:38.478Z,13.10
2018-12-07T08:27:06.614Z,13.10
2018-12-07T08:29:34.577Z,13.10
2018-12-07T08:32:02.601Z,13.20
2018-12-07T08:34:30.648Z,13.20
2018-12-07T08:36:58.626Z,13.20
2018-12-07T08:39:26.587Z,13.20
2018-12-07T08:41:54.541Z,13.30
2018-12-07T08:44:22.616Z,13.30
2018-12-07T08:46:50.612Z,13.30
2018-12-07T08:49:23.177Z,13.30
2018-12-07T08:51:51.160Z,13.30
2018-12-07T08:54:19.177Z,13.30
2018-12-07T08:56:47.506Z,13.30
2018-12-07T08:59:15.488Z,13.30
2018-12-07T09:01:44.522Z,13.30
2018-12-07T09:04:12.517Z,13.40
2018-12-07T09:06:40.532Z,13.40
2018-12-07T09:09:08.574Z,13.60
2018-12-07T09:11:38.717Z,13.60
2018-12-07T09:14:06.738Z,13.80
2018-12-07T09:16:35.356Z,13.90
2018-12-07T09:19:04.662Z,14.00
2018-12-07T09:21:32.700Z,14.00
2018-12-07T09:24:00.710Z,14.10
2018-12-07T09:26:29.077Z,14.20
2018-12-07T09:28:57.363Z,14.40
2018-12-07T09:31:25.373Z,14.50
2018-12-07T09:33:53.380Z,14.60
2018-12-07T09:36:21.523Z,14.70
2018-12-07T09:38:49.636Z,14.80
2018-12-07T09:41:18.251Z,14.90
2018-12-07T09:43:46.518Z,14.90
2018-12-07T09:46:14.562Z,14.90
2018-12-07T09:48:42.590Z,14.90
2018-12-07T09:51:10.731Z,14.80
2018-12-07T09:53:38.682Z,14.80
2018-12-07T09:56:06.712Z,14.80
2018-12-07T09:58:34.648Z,14.80
2018-12-07T10:01:02.613Z,14.90
2018-12-07T10:03:30.667Z,15.00
2018-12-07T10:05:58.713Z,15.00
2018-12-07T10:08:26.784Z,15.00
2018-12-07T10:10:55.098Z,14.90
2018-12-07T10:13:23.616Z,14.70
2018-12-07T10:15:51.834Z,14.60
2018-12-07T10:18:20.067Z,14.50
2018-12-07T10:20:48.515Z,14.40
2018-12-07T10:23:16.746Z,14.30
2018-12-07T10:25:45.020Z,14.20
2018-12-07T10:28:13.519Z,14.20
2018-12-07T10:30:42.257Z,14.10
2018-12-07T10:33:10.670Z,14.00
2018-12-07T10:35:38.668Z,14.00
2018-12-07T10:38:06.866Z,14.00
2018-12-07T10:40:35.552Z,13.90
2018-12-07T10:43:03.850Z,13.90
2018-12-07T10:45:32.167Z,14.00
2018-12-07T10:48:00.639Z,14.00
2018-12-07T10:50:29.510Z,14.00
2018-12-07T10:52:57.929Z,14.00
2018-12-07T10:55:26.479Z,13.90
2018-12-07T10:57:54.856Z,14.00
2018-12-07T11:00:28.858Z,14.00
2018-12-07T11:03:04.443Z,14.00
2018-12-07T11:05:38.475Z,14.00
2018-12-07T11:09:12.139Z,13.90
2018-12-07T11:11:45.128Z,13.80
2018-12-07T11:14:15.455Z,13.80
2018-12-07T11:16:49.137Z,13.80
2018-12-07T11:19:22.880Z,13.80
2018-12-07T11:21:56.468Z,13.90
2018-12-07T11:24:30.136Z,13.90
2018-12-07T11:27:03.502Z,13.90
2018-12-07T11:29:37.067Z,13.90
2018-12-07T11:32:10.647Z,13.90
2018-12-07T11:34:46.323Z,13.90
2018-12-07T11:37:15.162Z,13.90
2018-12-07T11:39:43.099Z,13.90
2018-12-07T11:42:13.124Z,14.00
2018-12-07T11:44:43.135Z,14.00
2018-12-07T11:47:11.179Z,14.10
2018-12-07T11:49:39.449Z,14.10
2018-12-07T11:52:07.500Z,14.10
2018-12-07T11:54:36.424Z,14.10
2018-12-07T11:57:04.509Z,14.00
2018-12-07T11:59:32.481Z,14.00
2018-12-07T12:02:00.446Z,14.10
2018-12-07T12:04:28.745Z,14.00
2018-12-07T12:06:56.798Z,14.00
2018-12-07T12:09:24.856Z,14.00
2018-12-07T12:11:54.829Z,14.00
2018-12-07T12:14:22.954Z,13.90
2018-12-07T12:16:51.168Z,14.00
2018-12-07T12:19:19.206Z,14.00
2018-12-07T12:21:47.400Z,14.10
2018-12-07T12:24:15.617Z,14.10
2018-12-07T12:26:43.906Z,14.10
2018-12-07T12:29:12.562Z,14.10
2018-12-07T12:31:40.986Z,14.10
2018-12-07T12:34:09.417Z,14.00
2018-12-07T12:36:37.743Z,14.00
2018-12-07T12:39:07.609Z,14.00
2018-12-07T12:41:37.347Z,14.00
2018-12-07T12:44:05.525Z,14.00
2018-12-07T12:46:34.103Z,14.00
2018-12-07T12:49:02.566Z,14.00
2018-12-07T12:51:30.928Z,14.10
2018-12-07T12:53:59.341Z,14.20
2018-12-07T12:56:27.738Z,14.20
2018-12-07T12:58:56.201Z,14.10
2018-12-07T13:01:24.917Z,14.10
2018-12-07T13:03:53.195Z,14.20
2018-12-07T13:06:21.550Z,14.20
2018-12-07T13:08:49.827Z,14.20
2018-12-07T13:11:18.046Z,14.20
2018-12-07T13:13:46.422Z,14.20
2018-12-07T13:16:14.769Z,14.20
2018-12-07T13:18:43.140Z,14.20
2018-12-07T13:21:11.425Z,14.10
2018-12-07T13:23:39.586Z,14.10
2018-12-07T13:26:07.997Z,14.10
2018-12-07T13:28:36.238Z,14.00
2018-12-07T13:31:04.738Z,14.00
2018-12-07T13:33:33.167Z,14.00
2018-12-07T13:36:01.617Z,13.90
2018-12-07T13:38:29.775Z,13.90
2018-12-07T13:40:58.142Z,13.90
2018-12-07T13:43:26.850Z,13.90
2018-12-07T13:45:55.716Z,13.80
2018-12-07T13:48:24.486Z,13.70
2018-12-07T13:50:53.064Z,13.60
2018-12-07T13:53:22.105Z,13.50
2018-12-07T13:55:51.033Z,13.40
2018-12-07T13:58:19.444Z,13.30
2018-12-07T14:00:47.730Z,13.20
2018-12-07T14:03:16.955Z,13.20
2018-12-07T14:05:45.401Z,13.00
2018-12-07T14:08:13.942Z,12.90
2018-12-07T14:10:42.308Z,12.80
2018-12-07T14:13:11.483Z,12.70
2018-12-07T14:15:40.169Z,12.70
2018-12-07T14:18:08.809Z,12.60
2018-12-07T14:20:38.079Z,12.60
2018-12-07T14:23:06.703Z,12.70
2018-12-07T14:25:35.543Z,12.70
2018-12-07T14:28:04.332Z,12.70
2018-12-07T14:30:32.716Z,12.70
2018-12-07T14:33:01.248Z,12.70
2018-12-07T14:35:29.782Z,12.70
2018-12-07T14:37:58.137Z,12.70
2018-12-07T14:40:26.757Z,12.60
2018-12-07T14:42:55.521Z,12.60
2018-12-07T14:45:24.169Z,12.50
2018-12-07T14:47:52.576Z,12.60
2018-12-07T14:50:21.634Z,12.60
2018-12-07T14:52:50.485Z,12.60
2018-12-07T14:55:19.551Z,12.60
2018-12-07T14:57:47.927Z,12.60
2018-12-07T15:00:16.585Z,12.60
2018-12-07T15:02:45.239Z,12.60
2018-12-07T15:05:13.730Z,12.60
2018-12-07T15:07:46.041Z,12.60
2018-12-07T15:10:30.582Z,12.60
2018-12-07T15:13:10.679Z,12.70
2018-12-07T15:15:39.483Z,12.60
2018-12-07T15:35:16.823Z,12.40
2018-12-07T15:37:46.022Z,12.30
2018-12-07T15:40:15.220Z,12.30
2018-12-07T15:42:44.742Z,12.40
2018-12-07T15:45:13.370Z,12.40
2018-12-07T15:47:41.928Z,12.40
2018-12-07T15:50:10.362Z,12.40
2018-12-07T15:52:38.575Z,12.40
2018-12-07T15:55:07.220Z,12.40
2018-12-07T15:57:35.941Z,12.50
2018-12-07T16:00:05.110Z,12.40
2018-12-07T16:02:33.857Z,12.40
2018-12-07T16:05:02.310Z,12.40
2018-12-07T16:07:31.101Z,12.40
2018-12-07T16:09:59.678Z,12.40
2018-12-07T16:12:29.206Z,12.40
2018-12-07T16:14:57.714Z,12.30
2018-12-07T16:17:26.126Z,12.30
2018-12-07T16:19:54.821Z,12.20
2018-12-07T16:22:23.085Z,12.20
2018-12-07T16:24:51.735Z,12.20
2018-12-07T16:27:20.224Z,12.20
2018-12-07T16:29:50.101Z,12.10
2018-12-07T16:32:18.594Z,12.20
2018-12-07T16:34:47.047Z,12.20
2018-12-07T16:37:16.546Z,12.10
2018-12-07T16:39:45.319Z,12.10
2018-12-07T16:42:13.828Z,12.20
2018-12-07T16:44:42.407Z,12.10
2018-12-07T16:47:10.959Z,12.20
2018-12-07T16:49:40.774Z,12.20
2018-12-07T16:52:09.454Z,12.20
2018-12-07T16:54:38.111Z,12.20
2018-12-07T16:57:06.664Z,12.20
2018-12-07T16:59:35.258Z,12.20
2018-12-07T17:02:03.611Z,12.20
2018-12-07T17:04:32.038Z,12.20
2018-12-07T17:07:00.439Z,12.30
2018-12-07T17:09:28.917Z,12.20
2018-12-07T17:11:57.508Z,12.20
2018-12-07T17:14:30.517Z,12.20
2018-12-07T17:16:59.084Z,12.10
2018-12-07T17:19:27.582Z,12.10
2018-12-07T17:21:56.186Z,12.10
2018-12-07T17:24:24.562Z,12.10
2018-12-07T17:26:53.319Z,12.00
2018-12-07T17:29:22.620Z,12.00
2018-12-07T17:31:51.103Z,12.00
2018-12-07T17:34:19.512Z,12.00
2018-12-07T17:36:48.046Z,12.00
2018-12-07T17:39:16.508Z,12.00
2018-12-07T17:41:45.138Z,12.00
2018-12-07T17:44:14.552Z,12.00
2018-12-07T17:46:43.784Z,12.00
2018-12-07T17:49:12.989Z,12.00
2018-12-07T17:51:41.940Z,12.00
2018-12-07T17:54:10.504Z,12.00
2018-12-07T17:56:39.468Z,12.00
2018-12-07T17:59:07.670Z,12.10
2018-12-07T18:01:36.010Z,12.10
2018-12-07T18:04:04.420Z,12.10
2018-12-07T18:06:32.837Z,12.10
2018-12-07T18:09:01.120Z,12.10
2018-12-07T18:11:31.686Z,12.10
2018-12-07T18:14:02.685Z,12.10
2018-12-07T18:16:31.813Z,12.00
2018-12-07T18:19:00.633Z,12.00
2018-12-07T18:21:29.125Z,12.00
2018-12-07T18:23:58.565Z,12.00
2018-12-07T18:26:28.796Z,12.00
2018-12-07T18:28:57.807Z,12.00
2018-12-07T18:31:26.905Z,11.90
2018-12-07T18:33:56.085Z,11.90
2018-12-07T18:36:24.660Z,11.90
2018-12-07T18:38:52.956Z,11.80
2018-12-07T18:41:21.743Z,11.80
2018-12-07T18:43:50.237Z,11.80
2018-12-07T18:46:18.919Z,11.80
2018-12-07T18:49:30.421Z,11.80
2018-12-07T18:52:05.949Z,11.80
2018-12-07T18:54:34.952Z,11.80
2018-12-07T18:57:03.343Z,11.80
2018-12-07T18:59:31.871Z,11.80
2018-12-07T19:02:05.006Z,11.80
2018-12-07T19:04:35.921Z,11.80
2018-12-07T19:07:04.987Z,11.80
2018-12-07T19:09:33.454Z,11.80
2018-12-07T19:12:01.950Z,11.80
2018-12-07T19:14:30.332Z,11.80
2018-12-07T19:17:00.001Z,11.80
2018-12-07T19:19:28.546Z,11.80
2018-12-07T19:21:56.994Z,11.80
2018-12-07T19:24:25.659Z,11.80
2018-12-07T19:26:54.135Z,11.80
2018-12-07T19:29:22.387Z,11.80
2018-12-07T19:31:50.890Z,11.80
2018-12-07T19:34:19.534Z,11.80
2018-12-07T19:36:48.107Z,11.80
2018-12-07T19:39:16.884Z,11.80
2018-12-07T19:41:45.599Z,11.70
2018-12-07T19:44:14.385Z,11.70
2018-12-07T19:46:59.813Z,11.80
2018-12-07T19:49:28.259Z,11.80
2018-12-07T19:51:56.489Z,11.80
2018-12-07T19:54:25.184Z,11.80
2018-12-07T19:56:53.741Z,11.80
2018-12-07T19:59:22.422Z,11.70
2018-12-07T20:01:50.818Z,11.70
2018-12-07T20:04:19.359Z,11.70
2018-12-07T20:06:49.129Z,11.70
2018-12-07T20:11:57.169Z,11.70
2018-12-07T20:14:25.596Z,11.70
2018-12-07T20:16:53.884Z,11.80
2018-12-07T20:19:22.486Z,11.70
2018-12-07T20:21:51.479Z,11.70
2018-12-07T20:24:19.730Z,11.70
2018-12-07T20:26:48.357Z,11.80
2018-12-07T20:29:16.921Z,11.80
2018-12-07T20:31:45.430Z,11.60
2018-12-07T20:34:14.073Z,11.20
2018-12-07T20:36:42.522Z,10.90
2018-12-07T20:39:11.079Z,10.60
2018-12-07T20:41:41.473Z,10.30
2018-12-07T20:44:09.679Z,10.10
2018-12-07T20:46:38.028Z,10.00
2018-12-07T20:49:06.379Z,9.90
2018-12-07T20:51:35.148Z,9.80
2018-12-07T20:54:04.300Z,9.70
2018-12-07T20:56:32.863Z,9.60
2018-12-07T20:59:01.248Z,9.60
2018-12-07T21:01:30.196Z,9.50
2018-12-07T21:04:23.339Z,9.50
2018-12-07T21:11:21.868Z,9.50
2018-12-07T21:14:26.426Z,9.40
2018-12-07T21:17:33.695Z,9.20
2018-12-07T21:20:22.158Z,9.20
2018-12-07T21:22:50.588Z,9.10
2018-12-07T21:25:18.889Z,9.10
2018-12-07T21:27:47.247Z,9.10
2018-12-07T21:30:59.035Z,9.10
2018-12-07T21:34:37.197Z,9.10
2018-12-07T21:37:05.695Z,9.00
2018-12-07T21:39:50.358Z,8.90
2018-12-07T21:42:18.913Z,8.90
2018-12-07T21:45:00.432Z,8.90
2018-12-07T21:47:56.884Z,8.90
2018-12-07T21:50:25.875Z,8.90
2018-12-07T21:52:54.444Z,8.80
2018-12-07T21:55:22.994Z,8.80
2018-12-07T21:57:51.540Z,8.70
2018-12-07T22:00:19.839Z,8.70
2018-12-07T22:02:48.806Z,8.60
2018-12-07T22:05:17.335Z,8.60
2018-12-07T22:07:45.821Z,8.60
2018-12-07T22:10:14.140Z,8.60
2018-12-07T22:12:42.320Z,8.60
2018-12-07T22:15:10.754Z,8.60
2018-12-07T22:17:39.335Z,8.60
2018-12-07T22:20:07.928Z,8.70
2018-12-07T22:22:36.316Z,8.70
2018-12-07T22:25:05.135Z,8.80
2018-12-07T22:27:33.847Z,8.80
2018-12-07T22:30:02.252Z,8.80
2018-12-07T22:32:31.204Z,8.80
2018-12-07T22:34:59.973Z,8.80
2018-12-07T22:37:28.363Z,8.80
2018-12-07T22:39:56.895Z,8.80
2018-12-07T22:42:25.374Z,8.80
2018-12-07T22:44:54.985Z,8.80
2018-12-07T22:47:23.392Z,8.70
2018-12-07T22:49:51.905Z,8.70
2018-12-07T22:52:20.270Z,8.70
2018-12-07T22:54:49.663Z,8.60
2018-12-07T22:57:18.042Z,8.60
2018-12-07T22:59:46.947Z,8.60
2018-12-07T23:02:15.827Z,8.60
2018-12-07T23:04:43.988Z,8.60
2018-12-07T23:07:12.088Z,8.50
2018-12-07T23:09:40.567Z,8.50
2018-12-07T23:12:08.872Z,8.50
2018-12-07T23:14:37.111Z,8.50
2018-12-07T23:17:05.711Z,8.50
2018-12-07T23:19:34.087Z,8.50
2018-12-07T23:22:05.183Z,8.50
2018-12-07T23:24:33.743Z,8.50
2018-12-07T23:27:02.062Z,8.60
2018-12-07T23:29:30.534Z,8.50
2018-12-07T23:31:58.857Z,8.50
2018-12-07T23:34:27.131Z,8.50
2018-12-07T23:36:57.621Z,8.50
2018-12-07T23:39:25.900Z,8.50
2018-12-07T23:41:54.389Z,8.50
2018-12-07T23:44:22.686Z,8.50
2018-12-07T23:46:51.067Z,8.40
2018-12-07T23:49:19.466Z,8.40
2018-12-07T23:51:51.833Z,8.40
2018-12-07T23:54:20.789Z,8.40
2018-12-07T23:56:49.040Z,8.40
2018-12-07T23:59:17.357Z,8.40
